• vieta
  • image
  • image
  • image
mod_vvisit_countermod_vvisit_countermod_vvisit_countermod_vvisit_countermod_vvisit_countermod_vvisit_counter
mod_vvisit_counterŠiandien54
mod_vvisit_counterVakar311
mod_vvisit_counterŠią savaitę988
mod_vvisit_counterPraėjusią savaitę6973
mod_vvisit_counterŠį mėnesį18399
mod_vvisit_counterPraėjusį mėnesį11404
mod_vvisit_counterViso182209

Mes turime: 1 svečius, 1 bots online
Jūsų IP: 54.144.79.200
 , 
Šiandien: Lie 29, 2015

Šiandien

Trečiadienis, 29 Liepa 2015

Orų prognozė

Šiauliai 14 °C
   

Orų prognozė aviacijai

[source: ADDS]
METAR
EYSA 290220Z 22009KT 9999 FEW007 BKN009 OVC120 14/13 Q1002 =
TAF
TAF EYSA 290200Z 2903/2912 21010KT 9000 SCT020CB TEMPO 2903/2905 BKN003 TEMPO 2905/2909 4000 SHRA =
SR / SS: 02:31 / 18:37 UTC (EYSA 2015-07-29)

Paieška

Lankytojai

Mes turime 2 svečius online

tic logo lt